« Back
NWS Peachtree City, Ga » Text Product » AHN Terminal Aerodrome Forecast


Printer-friendly Version
Current Version              Previous Versions:   1  2  3  4  5  6  7  8  9  

Terminal Aerodrome Forecast

208
FTAK31 PAJN 122023 AAA
TAFAHN
TAF AMD
PAHN 122023Z 1220/1318 10010G20KT P6SM -SHRA BKN015 OVC040
     FM122300 10010G20KT P6SM -SHRA SCT015 OVC040
     FM130700 07008KT P6SM -SHRA SCT025 OVC060
     FM131100 08008KT P6SM VCSH OVC050
     FM131500 29006KT P6SM VCSH OVC060
      AMD LTD TO CLD VIS AND WIND=

USA.gov is the U.S. government's official web portal to all federal, state and local government web resources and services.